Time;durP1;ratioP1;P1;durP2;ratioP2;P2;SDS_P1;SDS_P2;PMS_P1;PMS_P2;Temp;Humidity;BMP_temperature;BMP_pressure;BME280_temperature;BME280_humidity;BME280_pressure;Samples;Min_cycle;Max_cycle;Signal;HPM_P1;HPM_P2
2024/01/23 00:01:44;;;;;;;22.67;3.70;;;;;;;10.44;75.63;102079.91;5043262;28;20068;-62
2024/01/23 00:04:18;;;;;;;18.45;3.90;;;;;;;10.51;76.29;102075.78;5045308;28;20052;-60
2024/01/23 00:06:48;;;;;;;22.85;3.55;;;;;;;10.40;76.64;102084.31;5045441;28;20059;-61
2024/01/23 00:09:16;;;;;;;24.90;3.90;;;;;;;10.38;76.38;102090.13;5032178;28;20056;-66
2024/01/23 00:11:43;;;;;;;17.35;3.42;;;;;;;10.46;75.49;102094.25;5050783;28;20049;-64
2024/01/23 00:14:11;;;;;;;20.67;4.35;;;;;;;10.34;77.58;102107.47;5046859;28;20060;-60
2024/01/23 00:17:00;;;;;;;19.38;3.63;;;;;;;10.48;76.84;102106.59;5049149;28;20494;-61
2024/01/23 00:19:27;;;;;;;22.73;3.80;;;;;;;10.25;76.36;102109.97;5044172;28;20056;-61
2024/01/23 00:21:55;;;;;;;23.38;4.32;;;;;;;10.13;76.54;102121.25;5054868;28;20048;-61
2024/01/23 00:24:22;;;;;;;20.80;3.00;;;;;;;10.55;78.87;102109.09;5043934;28;20766;-61
2024/01/23 00:26:49;;;;;;;19.40;3.78;;;;;;;10.35;77.24;102109.13;5046982;28;20049;-61
2024/01/23 00:29:17;;;;;;;23.13;3.55;;;;;;;10.34;77.44;102115.75;5042706;28;20060;-62
2024/01/23 00:31:45;;;;;;;24.08;4.05;;;;;;;10.14;78.06;102117.41;5044559;28;20056;-61
2024/01/23 00:34:12;;;;;;;23.92;3.95;;;;;;;10.23;78.89;102121.25;5049406;28;20825;-62
2024/01/23 00:36:41;;;;;;;23.15;4.20;;;;;;;10.40;79.25;102131.16;5040697;28;20068;-60
2024/01/23 00:39:09;;;;;;;27.77;3.75;;;;;;;10.29;79.29;102140.53;5056539;28;20053;-62
2024/01/23 00:41:38;;;;;;;19.50;3.78;;;;;;;10.20;78.33;102137.50;5046844;28;20045;-62
2024/01/23 00:44:06;;;;;;;29.10;4.43;;;;;;;10.23;79.78;102143.28;5047875;28;20543;-60
2024/01/23 00:46:33;;;;;;;34.10;4.40;;;;;;;10.22;78.61;102151.81;5047938;28;20045;-61
2024/01/23 00:49:06;;;;;;;19.33;3.25;;;;;;;10.18;79.84;102134.22;5049163;28;20048;-60
2024/01/23 00:51:33;;;;;;;18.95;3.75;;;;;;;10.41;80.10;102136.38;5048242;28;20053;-61
2024/01/23 00:54:02;;;;;;;17.55;2.95;;;;;;;10.49;78.39;102141.34;5049208;28;20059;-62
2024/01/23 00:56:30;;;;;;;18.98;4.05;;;;;;;10.24;78.80;102135.84;5048467;28;20053;-61
2024/01/23 00:58:57;;;;;;;17.95;3.05;;;;;;;10.16;79.06;102153.75;5063231;28;20041;-64
2024/01/23 01:01:25;;;;;;;23.65;3.78;;;;;;;10.08;80.27;102148.78;5048477;28;20056;-66
2024/01/23 01:03:52;;;;;;;28.73;3.53;;;;;;;10.11;80.25;102159.25;5048688;28;20053;-64
2024/01/23 01:06:20;;;;;;;23.33;3.65;;;;;;;10.21;80.03;102161.19;5050155;28;20053;-64
2024/01/23 01:08:47;;;;;;;31.25;5.20;;;;;;;10.30;79.14;102167.81;5047714;28;20056;-64
2024/01/23 01:11:15;;;;;;;24.23;4.18;;;;;;;10.32;80.04;102164.78;5049446;28;20057;-65
2024/01/23 01:13:42;;;;;;;25.35;4.25;;;;;;;10.28;79.34;102152.63;5064030;28;20049;-64
2024/01/23 01:16:10;;;;;;;24.88;4.20;;;;;;;10.12;80.29;102163.66;5049160;28;20650;-63
2024/01/23 01:18:39;;;;;;;21.80;3.97;;;;;;;10.05;82.31;102160.34;5047550;28;20053;-61
2024/01/23 01:21:11;;;;;;;22.58;3.80;;;;;;;10.10;80.45;102167.78;5048534;28;20427;-61
2024/01/23 01:23:38;;;;;;;28.50;4.78;;;;;;;10.23;79.04;102167.25;5046821;28;20412;-61
2024/01/23 01:26:06;;;;;;;22.55;4.00;;;;;;;10.16;79.27;102167.50;5025332;28;20061;-61
2024/01/23 01:28:33;;;;;;;24.42;4.00;;;;;;;10.42;78.55;102173.84;5033670;28;20049;-61
2024/01/23 01:31:00;;;;;;;21.23;4.03;;;;;;;10.13;78.64;102187.34;5048184;28;20049;-62
2024/01/23 01:33:29;;;;;;;25.35;3.47;;;;;;;10.15;79.08;102192.56;5062076;28;20045;-61
2024/01/23 01:35:59;;;;;;;21.90;4.35;;;;;;;10.16;79.06;102183.22;5048010;28;20057;-62
2024/01/23 01:38:26;;;;;;;18.63;3.38;;;;;;;10.18;78.76;102197.53;5046273;28;20049;-62
2024/01/23 01:40:54;;;;;;;25.20;4.80;;;;;;;10.25;79.93;102184.34;5041030;28;20049;-61
2024/01/23 01:43:31;;;;;;;23.65;3.97;;;;;;;10.19;78.81;102191.75;5047329;28;20888;-61
2024/01/23 01:46:16;;;;;;;30.15;4.65;;;;;;;10.58;78.56;102199.44;5033745;28;20057;-61
2024/01/23 01:48:43;;;;;;;25.90;3.92;;;;;;;10.49;78.05;102204.69;5028899;28;20064;-61
2024/01/23 01:51:13;;;;;;;25.25;4.72;;;;;;;10.15;78.66;102207.16;5033036;28;20062;-63
2024/01/23 01:53:42;;;;;;;18.98;3.42;;;;;;;10.04;78.80;102205.47;5031927;28;20048;-60
2024/01/23 01:56:09;;;;;;;21.42;4.07;;;;;;;9.97;80.13;102204.91;5047486;28;20063;-60
2024/01/23 01:58:39;;;;;;;35.42;4.28;;;;;;;9.86;80.01;102213.44;5046330;28;20057;-60
2024/01/23 02:01:06;;;;;;;26.17;4.28;;;;;;;10.10;79.58;102218.19;5047481;28;20053;-62
2024/01/23 02:03:34;;;;;;;30.85;4.20;;;;;;;9.98;79.01;102217.59;5045879;28;20045;-62
2024/01/23 02:06:03;;;;;;;28.70;4.97;;;;;;;9.88;79.85;102217.56;5046850;28;20589;-61
2024/01/23 02:08:31;;;;;;;22.70;4.63;;;;;;;10.02;79.21;102226.13;5044660;28;20053;-60
2024/01/23 02:10:58;;;;;;;26.13;4.20;;;;;;;9.70;80.06;102223.56;5036607;28;20057;-61
2024/01/23 02:13:26;;;;;;;25.60;4.15;;;;;;;9.52;80.90;102231.50;5046353;28;20049;-62
2024/01/23 02:15:53;;;;;;;25.75;5.15;;;;;;;9.85;80.11;102231.84;5046745;28;20053;-62
2024/01/23 02:18:21;;;;;;;24.60;3.78;;;;;;;9.77;80.21;102243.41;5047137;28;20599;-61
2024/01/23 02:20:51;;;;;;;21.05;3.95;;;;;;;9.76;80.25;102230.72;5031829;28;20057;-62
2024/01/23 02:23:18;;;;;;;;;;;;;;;9.67;80.68;102239.78;5039174;28;20046;-61
2024/01/23 02:25:45;;;;;;;26.08;4.47;;;;;;;9.90;80.06;102242.06;5046036;28;19925;-61
2024/01/23 02:28:15;;;;;;;30.50;4.43;;;;;;;9.88;79.53;102245.09;5047487;28;20040;-62
2024/01/23 02:30:43;;;;;;;19.95;3.30;;;;;;;10.02;79.05;102250.91;5026611;28;20598;-61
2024/01/23 02:33:10;;;;;;;26.67;4.50;;;;;;;9.93;79.32;102247.03;5001142;28;20054;-61
2024/01/23 02:35:38;;;;;;;27.02;3.95;;;;;;;9.91;79.60;102244.53;4999795;28;20062;-61
2024/01/23 02:38:05;;;;;;;31.92;4.63;;;;;;;9.85;79.85;102253.88;4994932;28;20054;-61
2024/01/23 02:40:32;;;;;;;20.50;3.70;;;;;;;10.04;79.79;102244.00;5007128;28;20049;-62
2024/01/23 02:43:00;;;;;;;29.58;3.97;;;;;;;9.90;79.71;102236.56;5006193;28;20054;-61
2024/01/23 02:45:27;;;;;;;27.98;3.55;;;;;;;9.72;80.71;102250.81;5006607;28;20064;-62
2024/01/23 02:47:57;;;;;;;23.65;4.53;;;;;;;9.61;81.54;102247.19;4995000;28;20061;-62
2024/01/23 02:50:26;;;;;;;28.98;4.68;;;;;;;9.64;82.04;102245.84;4994712;28;20589;-60
2024/01/23 02:52:54;;;;;;;18.30;3.40;;;;;;;9.62;82.44;102257.13;4993379;28;20054;-61
2024/01/23 02:55:21;;;;;;;24.02;4.63;;;;;;;9.66;82.59;102258.22;4996887;28;20068;-61
2024/01/23 02:57:48;;;;;;;25.42;3.97;;;;;;;9.47;83.84;102254.28;4997494;28;20066;-61
2024/01/23 03:00:16;;;;;;;23.80;3.65;;;;;;;9.60;83.39;102252.97;5003861;28;20631;-60
2024/01/23 03:02:43;;;;;;;26.38;4.32;;;;;;;9.60;84.44;102248.31;5003970;28;20060;-61
2024/01/23 03:05:11;;;;;;;28.85;4.75;;;;;;;9.44;84.30;102241.09;5005541;28;20079;-61
2024/01/23 03:07:40;;;;;;;29.83;4.70;;;;;;;9.47;84.55;102247.97;5006287;28;20050;-61
2024/01/23 03:10:07;;;;;;;26.70;4.30;;;;;;;9.28;84.58;102246.78;5005776;28;20060;-63
2024/01/23 03:12:35;;;;;;;30.48;4.45;;;;;;;9.36;84.55;102246.28;5005773;28;20137;-61
2024/01/23 03:15:02;;;;;;;32.20;5.05;;;;;;;9.55;84.32;102250.22;5005682;28;20564;-61
2024/01/23 03:17:30;;;;;;;18.63;3.78;;;;;;;9.63;84.40;102247.75;5037805;28;20054;-62
2024/01/23 03:19:58;;;;;;;25.05;4.47;;;;;;;9.41;84.13;102249.88;5029588;28;20065;-61
2024/01/23 03:22:26;;;;;;;32.53;4.43;;;;;;;9.30;84.99;102253.66;5003717;28;20081;-60
2024/01/23 03:24:53;;;;;;;24.58;4.30;;;;;;;9.38;84.84;102264.16;5005523;28;20659;-61
2024/01/23 03:27:21;;;;;;;29.70;4.18;;;;;;;9.53;84.88;102260.66;5004488;28;20314;-61
2024/01/23 03:29:51;;;;;;;30.77;4.45;;;;;;;9.52;83.98;102264.50;4999402;28;20144;-60
2024/01/23 03:32:19;;;;;;;32.10;3.83;;;;;;;9.50;85.67;102261.19;5019484;28;20049;-61
2024/01/23 03:34:49;;;;;;;33.45;4.60;;;;;;;9.34;86.49;102259.47;5042968;28;20052;-60
2024/01/23 03:37:17;;;;;;;28.33;4.88;;;;;;;9.42;87.25;102258.94;5043541;28;20083;-60
2024/01/23 03:39:45;;;;;;;25.17;4.00;;;;;;;9.25;86.10;102250.06;5045636;28;20049;-61
2024/01/23 03:42:12;;;;;;;31.90;5.03;;;;;;;9.33;86.62;102253.13;5045328;28;20060;-62
2024/01/23 03:44:39;;;;;;;26.05;4.88;;;;;;;9.32;85.86;102272.66;5045015;28;20083;-61
2024/01/23 03:47:07;;;;;;;35.72;4.75;;;;;;;9.39;86.13;102265.81;5040444;28;20587;-63
2024/01/23 03:49:35;;;;;;;34.67;4.93;;;;;;;9.28;85.28;102274.25;5044028;28;20049;-60
2024/01/23 03:52:03;;;;;;;33.17;4.93;;;;;;;9.42;85.95;102287.28;5044793;28;20202;-60
2024/01/23 03:54:31;;;;;;;31.52;4.95;;;;;;;9.41;85.35;102288.38;5043071;28;20061;-61
2024/01/23 03:56:58;;;;;;;30.80;4.68;;;;;;;9.33;85.49;102288.06;5045994;28;20053;-60
2024/01/23 03:59:25;;;;;;;31.67;5.03;;;;;;;9.44;86.98;102293.34;5045159;28;20044;-61
2024/01/23 04:01:53;;;;;;;35.75;4.32;;;;;;;9.44;85.19;102284.25;5044282;28;20439;-62
2024/01/23 04:04:21;;;;;;;29.42;5.25;;;;;;;9.64;84.42;102287.09;5045303;28;20087;-60
2024/01/23 04:06:49;;;;;;;32.05;4.63;;;;;;;9.56;83.78;102293.94;5059166;28;20132;-61
2024/01/23 04:09:17;;;;;;;39.13;4.82;;;;;;;9.50;84.78;102303.25;5039962;28;20585;-61
2024/01/23 04:11:46;;;;;;;32.40;4.40;;;;;;;9.13;85.33;102314.31;5063331;28;20061;-61
2024/01/23 04:14:13;;;;;;;36.95;5.60;;;;;;;9.35;86.33;102310.59;5045274;28;20041;-60
2024/01/23 04:16:40;;;;;;;35.85;5.47;;;;;;;9.34;85.35;102314.47;5035370;28;20072;-60
2024/01/23 04:19:08;;;;;;;30.75;5.25;;;;;;;9.44;84.92;102320.00;5025624;28;20061;-61
2024/01/23 04:21:35;;;;;;;32.72;4.55;;;;;;;9.47;85.34;102311.22;5032400;28;20858;-61
2024/01/23 04:24:03;;;;;;;35.10;4.82;;;;;;;9.32;85.51;102319.38;5045425;28;20163;-63
2024/01/23 04:26:30;;;;;;;34.90;5.22;;;;;;;9.50;84.60;102305.19;5036126;28;20059;-61
2024/01/23 04:28:57;;;;;;;32.72;5.28;;;;;;;9.48;84.70;102305.47;5043551;28;20060;-61
2024/01/23 04:31:25;;;;;;;26.55;4.53;;;;;;;9.50;84.22;102313.44;5044237;28;20610;-61
2024/01/23 04:33:53;;;;;;;36.55;4.93;;;;;;;9.56;83.89;102313.19;5045563;28;20059;-60
2024/01/23 04:36:21;;;;;;;32.00;5.43;;;;;;;9.28;84.79;102312.75;5038213;28;20061;-62
2024/01/23 04:38:48;;;;;;;33.22;5.45;;;;;;;9.45;85.80;102324.44;5025113;28;20053;-61
2024/01/23 04:41:15;;;;;;;31.95;4.60;;;;;;;9.53;84.23;102332.16;5041268;28;20704;-64
2024/01/23 04:43:43;;;;;;;34.75;5.45;;;;;;;9.58;83.94;102330.28;5044083;28;20049;-61
2024/01/23 04:46:10;;;;;;;18.50;4.18;;;;;;;9.59;83.91;102342.13;5045046;28;20060;-62
2024/01/23 04:48:38;;;;;;;31.63;4.95;;;;;;;9.59;84.35;102340.16;5036137;28;20067;-64
2024/01/23 04:51:05;;;;;;;33.58;4.28;;;;;;;9.55;84.62;102352.81;5044331;28;20757;-63
2024/01/23 04:53:33;;;;;;;33.17;5.03;;;;;;;9.47;85.59;102355.22;5044727;28;20052;-63
2024/01/23 04:56:00;;;;;;;30.15;4.95;;;;;;;9.53;85.54;102357.75;5045060;28;20064;-64
2024/01/23 04:58:29;;;;;;;31.77;4.28;;;;;;;9.52;86.02;102361.59;5044873;28;20056;-64
2024/01/23 05:00:58;;;;;;;28.48;4.95;;;;;;;9.56;85.49;102375.63;5039840;28;20053;-64
2024/01/23 05:03:26;;;;;;;32.17;4.75;;;;;;;9.78;85.16;102374.38;5037204;28;20053;-64
2024/01/23 05:05:53;;;;;;;30.20;5.50;;;;;;;9.51;84.57;102379.19;5033183;28;20049;-64
2024/01/23 05:08:21;;;;;;;31.00;5.07;;;;;;;9.63;85.06;102382.56;5060206;28;20059;-64
2024/01/23 05:10:48;;;;;;;37.15;5.15;;;;;;;9.61;85.02;102368.25;5044729;28;20048;-64
2024/01/23 05:13:16;;;;;;;32.30;5.35;;;;;;;9.73;85.13;102370.78;5048214;28;20061;-63
2024/01/23 05:15:43;;;;;;;32.17;5.10;;;;;;;9.72;84.43;102360.88;5047930;28;20092;-64
2024/01/23 05:18:10;;;;;;;40.05;5.05;;;;;;;9.78;84.78;102370.81;5047872;28;20044;-60
2024/01/23 05:20:38;;;;;;;28.27;5.22;;;;;;;9.71;86.28;102373.78;5043210;28;20049;-60
2024/01/23 05:23:05;;;;;;;25.27;5.00;;;;;;;9.66;85.26;102387.53;5030133;28;20049;-60
2024/01/23 05:25:33;;;;;;;30.98;4.95;;;;;;;9.55;85.47;102380.34;5048364;28;20495;-62
2024/01/23 05:28:00;;;;;;;34.40;5.20;;;;;;;9.53;85.69;102388.00;5037240;28;20049;-63
2024/01/23 05:30:28;;;;;;;28.83;5.85;;;;;;;9.69;85.59;102392.47;5040825;28;20741;-63
2024/01/23 05:32:55;;;;;;;32.58;4.93;;;;;;;9.70;85.38;102394.16;5040386;28;20511;-62
2024/01/23 05:35:22;;;;;;;32.78;5.18;;;;;;;9.66;84.82;102404.03;5043053;28;20567;-61
2024/01/23 05:37:50;;;;;;;34.75;6.65;;;;;;;9.55;85.66;102409.75;5073840;28;20038;-60
2024/01/23 05:40:17;;;;;;;28.73;4.88;;;;;;;9.86;84.72;102415.16;5047944;28;20057;-60
2024/01/23 05:42:44;;;;;;;28.95;4.45;;;;;;;10.00;84.91;102418.25;5031450;28;20049;-61
2024/01/23 05:45:13;;;;;;;33.30;4.78;;;;;;;9.91;83.41;102423.44;5043462;28;20591;-63
2024/01/23 05:47:40;;;;;;;28.55;4.97;;;;;;;10.03;83.16;102425.97;5027937;28;20053;-61
2024/01/23 05:50:08;;;;;;;33.40;5.10;;;;;;;9.90;83.65;102427.28;5026947;28;20056;-62
2024/01/23 05:52:35;;;;;;;28.48;4.53;;;;;;;9.82;84.11;102437.97;5026690;28;20064;-63
2024/01/23 05:55:03;;;;;;;25.08;4.78;;;;;;;9.82;84.14;102426.97;5039832;28;20049;-61
2024/01/23 05:57:31;;;;;;;27.58;4.38;;;;;;;9.73;84.66;102436.81;5048506;28;20052;-61
2024/01/23 05:59:59;;;;;;;30.75;4.45;;;;;;;9.80;84.69;102445.66;5039631;28;20052;-61
2024/01/23 06:02:27;;;;;;;27.95;5.38;;;;;;;9.80;84.51;102459.41;5047284;28;20045;-62
2024/01/23 06:04:54;;;;;;;26.50;4.68;;;;;;;9.83;84.69;102458.91;5047410;28;20049;-61
2024/01/23 06:07:21;;;;;;;25.60;4.40;;;;;;;9.75;84.26;102457.47;5047798;28;20064;-61
2024/01/23 06:09:49;;;;;;;32.38;5.63;;;;;;;9.70;85.16;102460.19;5062382;28;20060;-64
2024/01/23 06:12:16;;;;;;;27.25;4.70;;;;;;;9.74;84.87;102455.84;5061119;28;20057;-62
2024/01/23 06:14:43;;;;;;;29.80;5.18;;;;;;;9.80;84.60;102457.50;5044185;28;20059;-62
2024/01/23 06:17:10;;;;;;;32.58;5.75;;;;;;;9.73;84.89;102464.31;5047597;28;20049;-60
2024/01/23 06:19:39;;;;;;;34.42;5.95;;;;;;;9.67;85.25;102463.50;5046638;28;20053;-61
2024/01/23 06:22:07;;;;;;;31.50;5.00;;;;;;;9.67;85.18;102454.41;5047702;28;20059;-61
2024/01/23 06:24:34;;;;;;;35.13;4.88;;;;;;;9.63;86.07;102458.75;5064031;28;20052;-61
2024/01/23 06:27:01;;;;;;;29.45;5.10;;;;;;;9.65;85.93;102460.16;5067698;28;20057;-61
2024/01/23 06:29:29;;;;;;;33.20;4.75;;;;;;;9.63;85.71;102461.50;5066909;28;20056;-61
2024/01/23 06:31:56;;;;;;;28.63;5.60;;;;;;;9.66;86.16;102463.75;5063379;28;20053;-62
2024/01/23 06:34:24;;;;;;;32.20;5.05;;;;;;;9.56;85.89;102466.41;5045118;28;20817;-63
2024/01/23 06:36:51;;;;;;;30.23;4.80;;;;;;;9.70;86.35;102462.09;5047400;28;20052;-62
2024/01/23 06:39:18;;;;;;;35.42;5.72;;;;;;;9.71;85.82;102467.34;5045878;28;20056;-62
2024/01/23 06:41:48;;;;;;;28.80;4.88;;;;;;;9.69;86.02;102463.22;5047099;28;20060;-62
2024/01/23 06:44:15;;;;;;;27.63;5.70;;;;;;;9.66;85.92;102461.00;5045820;28;20048;-62
2024/01/23 06:46:43;;;;;;;48.53;6.32;;;;;;;9.60;86.26;102459.31;5042636;28;20049;-63
2024/01/23 06:49:10;;;;;;;32.47;5.95;;;;;;;9.66;86.21;102452.75;5026791;28;20056;-61
2024/01/23 06:51:38;;;;;;;29.38;4.35;;;;;;;9.71;86.27;102464.59;5044673;28;20052;-62
2024/01/23 06:54:07;;;;;;;39.75;5.80;;;;;;;9.66;86.38;102466.50;5046761;28;20061;-63
2024/01/23 06:56:35;;;;;;;30.85;4.43;;;;;;;9.68;86.34;102464.28;5051775;28;20044;-62
2024/01/23 06:59:04;;;;;;;29.85;5.80;;;;;;;9.59;86.67;102463.97;5060676;28;20057;-61
2024/01/23 07:01:33;;;;;;;36.28;6.05;;;;;;;9.58;86.97;102467.81;5047718;28;20048;-62
2024/01/23 07:04:01;;;;;;;28.70;4.63;;;;;;;9.87;86.76;102482.88;5047185;28;20174;-61
2024/01/23 07:06:28;;;;;;;33.60;4.88;;;;;;;9.78;86.32;102478.16;5029872;28;20053;-62
2024/01/23 07:08:55;;;;;;;31.88;5.57;;;;;;;9.77;86.24;102479.22;5040460;28;20066;-63
2024/01/23 07:11:27;;;;;;;31.52;5.07;;;;;;;9.75;86.33;102484.16;5050180;28;20479;-63
2024/01/23 07:13:54;;;;;;;35.53;4.93;;;;;;;9.52;87.13;102490.88;5026400;28;20317;-64
2024/01/23 07:16:22;;;;;;;37.22;5.03;;;;;;;9.65;87.47;102498.69;5028659;28;20045;-64
2024/01/23 07:18:53;;;;;;;26.13;5.15;;;;;;;9.61;87.85;102503.03;5046884;28;20057;-64
2024/01/23 07:21:24;;;;;;;40.17;5.55;;;;;;;9.48;88.34;102499.91;5044736;28;20068;-61
2024/01/23 07:23:52;;;;;;;28.77;5.10;;;;;;;9.56;88.25;102504.91;5039979;28;20044;-61
2024/01/23 07:26:19;;;;;;;35.13;6.63;;;;;;;9.62;88.10;102501.13;5043436;28;20087;-62
2024/01/23 07:28:46;;;;;;;34.63;5.47;;;;;;;9.60;88.50;102503.31;5037329;28;20057;-61
2024/01/23 07:31:29;;;;;;;34.25;5.63;;;;;;;9.56;88.36;102508.50;5029001;28;20061;-61
2024/01/23 07:33:57;;;;;;;30.13;5.72;;;;;;;9.54;89.30;102498.84;5036774;28;20053;-61
2024/01/23 07:36:26;;;;;;;41.85;9.13;;;;;;;9.65;88.99;102504.19;5034759;28;20049;-62
2024/01/23 07:39:25;;;;;;;32.88;6.80;;;;;;;9.83;91.30;102505.69;5036804;28;20404;-62
2024/01/23 07:42:11;;;;;;;30.08;5.00;;;;;;;9.79;89.74;102512.81;5014813;28;20065;-62
2024/01/23 07:44:39;;;;;;;33.33;5.90;;;;;;;9.78;89.42;102494.66;5033661;28;20412;-63
2024/01/23 07:47:20;;;;;;;41.88;6.43;;;;;;;9.75;89.26;102496.00;5064396;28;20053;-63
2024/01/23 07:49:48;;;;;;;34.55;6.07;;;;;;;9.78;89.46;102505.66;5035234;28;20061;-64
2024/01/23 07:52:18;;;;;;;39.33;5.45;;;;;;;9.84;88.92;102504.59;5043391;28;20512;-66
2024/01/23 07:54:47;;;;;;;33.30;5.30;;;;;;;9.71;89.65;102511.38;5043993;28;20052;-64
2024/01/23 07:57:15;;;;;;;41.05;6.57;;;;;;;9.89;89.54;102521.13;5052170;28;20052;-65
2024/01/23 07:59:42;;;;;;;32.67;5.35;;;;;;;9.98;89.24;102525.88;5029066;28;20049;-65
2024/01/23 08:02:09;;;;;;;34.03;5.40;;;;;;;9.86;89.25;102521.66;5058505;28;20053;-67
2024/01/23 08:04:37;;;;;;;31.63;6.00;;;;;;;9.88;89.55;102528.59;5040168;28;20053;-66
2024/01/23 08:07:05;;;;;;;35.33;5.07;;;;;;;9.87;89.62;102545.34;5060788;28;20049;-66
2024/01/23 08:09:33;;;;;;;29.95;5.30;;;;;;;9.95;89.13;102542.09;5042500;28;20060;-65
2024/01/23 08:12:01;;;;;;;37.17;5.88;;;;;;;9.90;89.41;102539.31;5036663;28;20064;-64
2024/01/23 08:14:29;;;;;;;28.80;5.90;;;;;;;9.89;89.69;102540.41;5045519;28;20048;-64
2024/01/23 08:16:56;;;;;;;45.97;6.25;;;;;;;9.71;90.65;102546.34;5048017;28;20064;-63
2024/01/23 08:19:27;;;;;;;38.65;5.57;;;;;;;9.81;90.68;102550.00;5044006;28;20057;-63
2024/01/23 08:21:55;;;;;;;33.15;5.00;;;;;;;9.92;90.30;102550.91;5043405;28;20140;-64
2024/01/23 08:24:22;;;;;;;31.23;5.63;;;;;;;9.92;90.02;102548.16;5032859;28;20081;-65
2024/01/23 08:26:52;;;;;;;27.70;5.32;;;;;;;10.00;89.53;102542.97;5044048;28;20057;-65
2024/01/23 08:29:20;;;;;;;;;;;;;;;10.20;88.68;102551.38;5044803;28;20057;-65
2024/01/23 08:31:50;;;;;;;34.55;6.43;;;;;;;10.04;89.00;102546.84;5043242;28;19935;-65
2024/01/23 08:34:17;;;;;;;44.55;7.10;;;;;;;10.05;88.80;102544.91;5033560;28;20622;-64
2024/01/23 08:36:47;;;;;;;31.25;4.85;;;;;;;9.99;89.45;102541.28;5061208;28;20041;-63
2024/01/23 08:39:15;;;;;;;30.75;6.07;;;;;;;10.01;90.69;102538.28;5052744;28;20064;-63
2024/01/23 08:41:43;;;;;;;38.80;6.97;;;;;;;10.08;90.01;102542.50;5041909;28;20064;-66
2024/01/23 08:44:10;;;;;;;36.97;5.88;;;;;;;9.97;90.68;102545.44;5035797;28;20065;-64
2024/01/23 08:46:37;;;;;;;38.70;6.50;;;;;;;10.08;90.18;102555.38;5033978;28;20531;-61
2024/01/23 08:49:05;;;;;;;34.13;6.15;;;;;;;10.08;90.00;102549.88;5046636;28;20061;-61
2024/01/23 08:51:32;;;;;;;32.45;5.72;;;;;;;10.19;90.01;102551.66;5052376;28;20048;-65
2024/01/23 08:54:00;;;;;;;33.38;6.25;;;;;;;10.16;89.96;102549.44;5038976;28;20057;-65
2024/01/23 08:56:27;;;;;;;34.58;6.05;;;;;;;10.18;89.85;102545.31;5040811;28;20057;-64
2024/01/23 08:58:55;;;;;;;40.47;5.63;;;;;;;10.23;89.36;102552.78;5035282;28;20053;-65
2024/01/23 09:01:22;;;;;;;39.80;5.95;;;;;;;10.23;89.59;102549.19;5039769;28;20062;-65
2024/01/23 09:03:49;;;;;;;38.63;6.65;;;;;;;10.32;89.14;102544.84;5041724;28;20052;-65
2024/01/23 09:06:17;;;;;;;34.90;6.70;;;;;;;10.36;89.69;102546.78;5038747;28;21277;-65
2024/01/23 09:08:44;;;;;;;34.08;6.20;;;;;;;10.46;88.67;102546.81;5036479;28;20575;-67
2024/01/23 09:11:12;;;;;;;40.20;6.53;;;;;;;10.34;88.54;102542.66;5036739;28;20061;-66
2024/01/23 09:13:39;;;;;;;35.35;6.47;;;;;;;10.54;88.13;102543.56;5043767;28;20061;-67
2024/01/23 09:16:07;;;;;;;38.08;6.70;;;;;;;10.61;87.72;102549.66;5043670;28;20046;-68
2024/01/23 09:18:34;;;;;;;38.78;6.15;;;;;;;10.43;88.05;102550.13;5035683;28;20068;-67
2024/01/23 09:21:03;;;;;;;38.13;5.95;;;;;;;10.46;88.60;102538.56;5043423;28;20065;-67
2024/01/23 09:23:30;;;;;;;37.25;6.35;;;;;;;10.55;88.19;102544.41;5048944;28;20053;-67
2024/01/23 09:25:58;;;;;;;44.20;7.53;;;;;;;10.63;87.44;102533.69;5035026;28;20054;-67
2024/01/23 09:28:25;;;;;;;38.03;6.53;;;;;;;10.71;87.35;102532.31;5036341;28;20516;-68
2024/01/23 09:30:52;;;;;;;42.50;7.20;;;;;;;10.76;87.87;102530.44;5044491;28;20052;-67
2024/01/23 09:33:19;;;;;;;43.08;6.47;;;;;;;10.76;87.37;102530.44;5032373;28;20053;-66
2024/01/23 09:35:48;;;;;;;39.00;6.10;;;;;;;10.86;88.53;102535.16;5036301;28;20338;-66
2024/01/23 09:38:16;;;;;;;46.80;7.20;;;;;;;10.98;87.03;102538.50;5045966;28;20056;-66
2024/01/23 09:40:48;;;;;;;32.58;6.93;;;;;;;10.90;86.39;102533.50;5040873;28;20049;-68
2024/01/23 09:43:19;;;;;;;41.83;6.93;;;;;;;10.83;86.86;102536.50;5034168;28;20593;-65
2024/01/23 09:45:47;;;;;;;39.67;6.40;;;;;;;10.74;87.55;102526.31;5034374;28;20058;-67
2024/01/23 09:48:15;;;;;;;36.33;5.70;;;;;;;10.62;88.24;102528.44;5041475;28;20049;-67
2024/01/23 09:50:44;;;;;;;35.25;6.78;;;;;;;10.61;87.65;102533.13;5036910;28;20056;-65
2024/01/23 09:53:12;;;;;;;39.05;7.28;;;;;;;10.85;87.45;102527.97;5040535;28;20041;-67
2024/01/23 09:55:40;;;;;;;43.28;6.35;;;;;;;10.80;87.60;102523.28;5039055;28;20053;-67
2024/01/23 09:58:08;;;;;;;32.78;6.55;;;;;;;10.68;88.19;102516.34;5038836;28;20057;-66
2024/01/23 10:00:35;;;;;;;41.55;6.97;;;;;;;10.65;87.79;102512.19;5038594;28;20396;-67
2024/01/23 10:03:04;;;;;;;37.92;6.68;;;;;;;10.76;87.96;102508.38;5033316;28;20041;-68
2024/01/23 10:05:31;;;;;;;35.28;7.35;;;;;;;10.67;88.24;102512.75;5041030;28;20053;-67
2024/01/23 10:08:01;;;;;;;40.55;6.90;;;;;;;10.68;88.07;102505.31;5034336;28;20747;-67
2024/01/23 10:10:29;;;;;;;38.45;6.55;;;;;;;10.85;88.27;102506.75;5037221;28;20060;-68
2024/01/23 10:12:58;;;;;;;46.75;7.15;;;;;;;11.02;87.49;102512.00;5030835;28;20037;-67
2024/01/23 10:15:25;;;;;;;30.40;5.53;;;;;;;10.92;87.43;102510.06;5035371;28;20053;-67
2024/01/23 10:17:53;;;;;;;26.83;5.75;;;;;;;10.93;87.15;102503.44;5036232;28;20048;-67
2024/01/23 10:20:21;;;;;;;32.03;6.47;;;;;;;11.08;86.80;102500.75;5039221;28;20053;-67
2024/01/23 10:22:49;;;;;;;37.83;7.18;;;;;;;10.78;87.83;102503.44;5037505;28;20131;-67
2024/01/23 10:25:20;;;;;;;35.50;7.78;;;;;;;10.94;87.73;102510.63;5038260;28;20780;-68
2024/01/23 10:27:53;;;;;;;46.78;7.40;;;;;;;10.98;87.56;102511.72;5028662;28;20041;-67
2024/01/23 10:30:21;;;;;;;42.88;7.00;;;;;;;10.88;88.45;102497.94;5037575;28;20057;-68
2024/01/23 10:32:48;;;;;;;39.90;7.10;;;;;;;10.92;88.02;102504.56;5040794;28;20069;-66
2024/01/23 10:35:16;;;;;;;42.15;6.82;;;;;;;11.19;88.10;102507.91;5072570;28;20064;-65
2024/01/23 10:37:44;;;;;;;36.55;5.75;;;;;;;11.05;87.54;102505.97;5050038;28;20069;-67
2024/01/23 10:40:13;;;;;;;29.40;5.90;;;;;;;10.91;88.69;102504.84;5028448;28;20049;-66
2024/01/23 10:42:42;;;;;;;35.80;6.50;;;;;;;11.01;88.69;102518.66;5053054;28;20315;-67
2024/01/23 10:45:16;;;;;;;40.65;7.28;;;;;;;10.97;88.67;102528.56;5040472;28;20084;-67
2024/01/23 10:47:45;;;;;;;37.47;6.80;;;;;;;10.99;89.40;102535.47;5033163;28;20054;-68
2024/01/23 10:50:13;;;;;;;39.10;8.57;;;;;;;10.94;90.64;102535.44;5052206;28;20055;-68
2024/01/23 10:52:45;;;;;;;44.78;8.55;;;;;;;10.91;91.93;102527.72;5040179;28;20095;-65
2024/01/23 10:55:13;;;;;;;39.70;8.02;;;;;;;11.34;91.50;102509.88;5039835;28;20049;-65
2024/01/23 10:57:48;;;;;;;38.00;7.43;;;;;;;11.13;91.53;102491.63;5030237;28;20575;-66
2024/01/23 11:00:18;;;;;;;42.47;7.47;;;;;;;11.10;92.51;102475.66;5034401;28;20041;-65
2024/01/23 11:02:59;;;;;;;51.40;7.97;;;;;;;10.83;93.75;102478.63;5042969;28;20056;-65
2024/01/23 11:05:52;;;;;;;34.97;6.05;;;;;;;11.35;100.00;102483.91;5036113;28;20056;-67
2024/01/23 11:08:24;;;;;;;43.53;7.30;;;;;;;11.24;95.36;102472.06;5017579;28;20064;-66
2024/01/23 11:10:57;;;;;;;42.47;6.95;;;;;;;11.26;94.63;102469.84;5037510;28;20071;-67
2024/01/23 11:13:31;;;;;;;42.10;8.13;;;;;;;11.31;94.20;102458.81;5035843;28;20736;-68
2024/01/23 11:16:03;;;;;;;49.17;13.82;;;;;;;11.35;94.33;102446.13;5022318;28;20694;-66
2024/01/23 11:18:34;;;;;;;62.83;21.40;;;;;;;11.37;94.51;102422.97;5038222;28;20072;-65
2024/01/23 11:21:05;;;;;;;62.85;19.75;;;;;;;11.24;94.88;102425.16;5018720;28;20138;-66
2024/01/23 11:23:35;;;;;;;44.80;12.45;;;;;;;11.15;96.04;102426.00;5043285;28;20045;-68
2024/01/23 11:26:04;;;;;;;39.05;9.50;;;;;;;11.36;95.33;102422.13;5036588;28;20042;-66
2024/01/23 11:28:34;;;;;;;41.25;9.95;;;;;;;11.37;95.10;102401.72;5029451;28;20053;-67